Time;durP1;ratioP1;P1;durP2;ratioP2;P2;SDS_P1;SDS_P2;PMS_P1;PMS_P2;Temp;Humidity;BMP_temperature;BMP_pressure;BME280_temperature;BME280_humidity;BME280_pressure;Samples;Min_cycle;Max_cycle;Signal;HPM_P1;HPM_P2
2021/04/07 00:00:58;;;;;;;3.33;0.95;;;4.50;92.40;;;;;;5013225;28;20480;-51
2021/04/07 00:04:02;;;;;;;3.85;1.20;;;4.50;92.30;;;;;;5013261;28;20508;-49
2021/04/07 00:07:06;;;;;;;1.52;0.90;;;4.50;92.10;;;;;;5002569;28;20472;-54
2021/04/07 00:10:13;;;;;;;0.75;0.52;;;4.50;92.50;;;;;;5011360;28;20042;-53
2021/04/07 00:13:20;;;;;;;8.52;0.95;;;4.50;92.10;;;;;;4999126;28;20042;-53
2021/04/07 00:16:25;;;;;;;1.67;0.60;;;4.60;92.20;;;;;;5012364;28;20473;-50
2021/04/07 00:19:29;;;;;;;2.92;0.75;;;4.50;92.90;;;;;;5012799;28;20374;-53
2021/04/07 00:22:35;;;;;;;1.35;0.60;;;4.30;92.10;;;;;;5012385;28;20049;-53
2021/04/07 00:25:39;;;;;;;1.27;0.50;;;4.40;91.70;;;;;;5012460;28;20046;-48
2021/04/07 00:28:43;;;;;;;2.33;0.85;;;4.30;92.30;;;;;;4999608;28;20509;-50
2021/04/07 00:31:48;;;;;;;4.85;1.30;;;4.30;92.00;;;;;;5011921;28;20381;-52
2021/04/07 00:34:52;;;;;;;2.42;1.00;;;4.30;91.40;;;;;;5012530;28;20496;-50
2021/04/07 00:37:56;;;;;;;5.28;1.20;;;4.20;92.00;;;;;;5010837;28;20046;-53
2021/04/07 00:41:01;;;;;;;2.70;1.60;;;4.10;92.70;;;;;;5011901;28;20030;-49
2021/04/07 00:44:06;;;;;;;2.28;0.65;;;3.90;93.60;;;;;;5009520;28;20519;-50
2021/04/07 00:47:14;;;;;;;5.57;0.95;;;4.00;91.10;;;;;;5011948;28;20474;-48
2021/04/07 00:50:25;;;;;;;7.10;0.88;;;3.80;94.80;;;;;;5012235;28;20038;-49
2021/04/07 00:53:29;;;;;;;3.42;1.50;;;3.70;96.30;;;;;;5012032;28;20042;-49
2021/04/07 00:56:34;;;;;;;2.10;1.00;;;3.50;97.90;;;;;;5000261;28;20054;-48
2021/04/07 00:59:38;;;;;;;4.55;0.90;;;3.30;97.70;;;;;;5011752;28;20042;-50
2021/04/07 01:02:43;;;;;;;3.05;0.73;;;3.20;95.90;;;;;;5011407;28;20263;-50
2021/04/07 01:05:47;;;;;;;1.30;0.70;;;3.30;93.50;;;;;;5011485;28;20037;-52
2021/04/07 01:08:51;;;;;;;1.50;0.75;;;3.30;93.40;;;;;;5011654;28;20577;-51
2021/04/07 01:11:55;;;;;;;1.60;0.65;;;3.70;90.40;;;;;;5000388;28;20030;-49
2021/04/07 01:15:00;;;;;;;2.60;0.60;;;3.90;90.70;;;;;;5011460;28;20038;-52
2021/04/07 01:18:04;;;;;;;1.23;0.63;;;4.00;88.90;;;;;;5010641;28;20389;-49
2021/04/07 01:21:08;;;;;;;3.83;0.68;;;4.00;90.00;;;;;;5010898;28;20038;-49
2021/04/07 01:24:12;;;;;;;2.20;0.73;;;4.00;90.50;;;;;;5011334;28;20034;-49
2021/04/07 01:27:17;;;;;;;2.90;0.70;;;3.70;91.00;;;;;;5000732;28;20030;-48
2021/04/07 01:30:23;;;;;;;1.05;0.60;;;4.00;87.10;;;;;;4998394;28;20037;-48
2021/04/07 01:33:28;;;;;;;2.03;0.55;;;4.00;86.90;;;;;;5010323;28;20288;-46
2021/04/07 01:36:31;;;;;;;3.15;1.27;;;4.10;87.80;;;;;;5010560;28;20046;-49
2021/04/07 01:39:35;;;;;;;1.10;0.70;;;3.90;90.30;;;;;;5010994;28;20054;-48
2021/04/07 01:42:42;;;;;;;2.92;1.00;;;4.00;87.60;;;;;;5010740;28;20049;-49
2021/04/07 01:45:48;;;;;;;3.53;0.63;;;3.90;88.70;;;;;;5010853;28;20372;-48
2021/04/07 01:48:52;;;;;;;2.75;0.75;;;3.80;88.50;;;;;;5010270;28;20030;-49
2021/04/07 01:51:57;;;;;;;2.20;0.73;;;3.80;91.20;;;;;;5010753;28;20045;-50
2021/04/07 01:55:04;;;;;;;1.10;0.65;;;3.60;91.40;;;;;;5005899;28;20038;-51
2021/04/07 01:58:08;;;;;;;2.30;1.17;;;3.50;91.10;;;;;;5010022;28;20041;-48
2021/04/07 02:01:11;;;;;;;1.38;0.70;;;3.50;89.90;;;;;;5009405;28;20041;-48
2021/04/07 02:04:16;;;;;;;2.92;0.73;;;3.60;87.40;;;;;;5010552;28;20038;-51
2021/04/07 02:07:20;;;;;;;4.07;0.95;;;3.70;88.90;;;;;;5010328;28;20073;-49
2021/04/07 02:10:25;;;;;;;2.50;0.95;;;3.60;92.80;;;;;;5007159;28;20033;-51
2021/04/07 02:13:29;;;;;;;3.33;0.90;;;3.30;94.50;;;;;;5010961;28;20042;-48
2021/04/07 02:16:33;;;;;;;1.35;0.80;;;3.30;90.00;;;;;;5010569;28;20049;-48
2021/04/07 02:19:37;;;;;;;1.75;0.68;;;3.60;88.90;;;;;;5010311;28;20386;-49
2021/04/07 02:22:41;;;;;;;2.35;1.00;;;3.50;91.90;;;;;;5010468;28;20041;-53
2021/04/07 02:25:45;;;;;;;2.65;1.02;;;3.40;93.50;;;;;;5010524;28;20042;-51
2021/04/07 02:28:49;;;;;;;1.65;0.73;;;3.30;93.90;;;;;;5010041;28;20037;-50
2021/04/07 02:31:53;;;;;;;4.60;1.42;;;3.00;95.50;;;;;;5010299;28;20038;-48
2021/04/07 02:34:57;;;;;;;3.13;1.00;;;2.70;96.90;;;;;;5010376;28;20033;-48
2021/04/07 02:38:02;;;;;;;6.55;1.35;;;2.50;97.80;;;;;;5009652;28;20042;-50
2021/04/07 02:41:06;;;;;;;6.03;2.13;;;2.40;98.20;;;;;;5009820;28;20037;-52
2021/04/07 02:44:10;;;;;;;3.72;0.93;;;2.20;99.40;;;;;;5009852;28;20347;-48
2021/04/07 02:47:14;;;;;;;2.75;0.90;;;2.10;99.10;;;;;;5009576;28;20472;-51
2021/04/07 02:50:18;;;;;;;4.80;0.95;;;2.00;99.80;;;;;;5009669;28;20038;-48
2021/04/07 02:53:23;;;;;;;10.52;0.80;;;1.90;99.90;;;;;;5008800;28;20046;-47
2021/04/07 02:56:32;;;;;;;3.55;1.08;;;1.80;99.90;;;;;;5009507;28;20400;-51
2021/04/07 02:59:36;;;;;;;5.07;1.20;;;1.70;99.90;;;;;;5009314;28;20389;-50
2021/04/07 03:02:40;;;;;;;1.00;0.73;;;1.60;99.90;;;;;;5009243;28;20042;-48
2021/04/07 03:05:44;;;;;;;1.65;0.90;;;1.50;99.90;;;;;;5009468;28;20531;-49
2021/04/07 03:08:48;;;;;;;8.60;0.98;;;1.60;99.90;;;;;;5008151;28;20421;-48
2021/04/07 03:11:52;;;;;;;4.25;1.20;;;1.60;99.90;;;;;;5009496;28;20061;-49
2021/04/07 03:14:56;;;;;;;5.45;0.93;;;1.50;99.90;;;;;;5010001;28;20042;-48
2021/04/07 03:18:01;;;;;;;3.20;1.00;;;1.60;99.90;;;;;;5009354;28;20382;-49
2021/04/07 03:21:05;;;;;;;4.40;0.90;;;1.60;99.90;;;;;;5008239;28;20527;-48
2021/04/07 03:24:10;;;;;;;3.78;1.70;;;1.50;99.90;;;;;;5009658;28;20046;-48
2021/04/07 03:27:14;;;;;;;4.90;0.88;;;1.40;99.90;;;;;;5009086;28;20030;-49
2021/04/07 03:30:18;;;;;;;6.28;0.95;;;1.30;99.90;;;;;;5008790;28;20045;-49
2021/04/07 03:33:25;;;;;;;2.47;0.80;;;1.30;99.90;;;;;;5009400;28;20042;-48
2021/04/07 03:36:29;;;;;;;4.88;1.10;;;1.30;99.90;;;;;;5009226;28;20046;-48
2021/04/07 03:39:33;;;;;;;3.38;0.90;;;1.30;99.90;;;;;;5009294;28;20381;-49
2021/04/07 03:42:37;;;;;;;4.40;1.10;;;1.30;99.90;;;;;;5008960;28;20030;-48
2021/04/07 03:45:44;;;;;;;4.30;1.67;;;1.10;99.90;;;;;;5009239;28;20038;-46
2021/04/07 03:48:48;;;;;;;3.60;1.00;;;1.00;99.90;;;;;;5009531;28;20034;-48
2021/04/07 03:51:52;;;;;;;2.92;1.15;;;0.90;99.90;;;;;;5008690;28;20042;-47
2021/04/07 03:54:58;;;;;;;6.97;2.17;;;1.00;99.90;;;;;;5009050;28;20034;-48
2021/04/07 03:58:03;;;;;;;3.95;0.85;;;1.00;99.90;;;;;;5009115;28;20050;-48
2021/04/07 04:01:10;;;;;;;1.83;0.80;;;0.90;99.90;;;;;;5008635;28;20050;-48
2021/04/07 04:04:14;;;;;;;2.20;0.90;;;0.90;99.90;;;;;;5009019;28;20038;-48
2021/04/07 04:07:18;;;;;;;1.42;1.05;;;0.90;99.90;;;;;;5008762;28;20076;-48
2021/04/07 04:10:22;;;;;;;2.75;1.08;;;0.90;99.90;;;;;;5008049;28;20489;-47
2021/04/07 04:13:26;;;;;;;3.75;1.10;;;0.90;99.90;;;;;;5008901;28;20045;-49
2021/04/07 04:16:30;;;;;;;2.70;1.00;;;0.90;99.90;;;;;;5008689;28;20046;-48
2021/04/07 04:19:35;;;;;;;4.90;1.20;;;0.90;99.90;;;;;;5000028;28;20291;-48
2021/04/07 04:22:39;;;;;;;2.05;0.90;;;0.90;99.90;;;;;;5012261;28;20034;-47
2021/04/07 04:25:43;;;;;;;3.58;1.00;;;0.90;99.90;;;;;;5012143;28;20030;-48
2021/04/07 04:28:47;;;;;;;3.33;1.00;;;0.90;99.90;;;;;;5011986;28;20404;-49
2021/04/07 04:31:52;;;;;;;3.70;0.98;;;1.00;99.90;;;;;;5011813;28;20049;-47
2021/04/07 04:34:56;;;;;;;6.90;1.98;;;1.00;99.90;;;;;;5012400;28;20041;-47
2021/04/07 04:38:00;;;;;;;2.42;1.05;;;1.10;99.90;;;;;;5000841;28;20029;-49
2021/04/07 04:41:04;;;;;;;5.22;1.20;;;1.20;99.90;;;;;;5011826;28;20349;-49
2021/04/07 04:44:08;;;;;;;3.63;1.38;;;1.20;99.90;;;;;;5012107;28;20042;-48
2021/04/07 04:47:12;;;;;;;4.15;1.30;;;1.20;99.90;;;;;;5012083;28;20508;-48
2021/04/07 04:50:16;;;;;;;3.42;1.10;;;1.30;99.90;;;;;;5012290;28;20033;-48
2021/04/07 04:53:20;;;;;;;3.25;0.90;;;1.30;99.90;;;;;;5001026;28;20041;-48
2021/04/07 04:56:25;;;;;;;3.28;1.02;;;1.20;99.90;;;;;;5011714;28;20042;-48
2021/04/07 04:59:29;;;;;;;4.05;1.48;;;1.30;99.90;;;;;;5011975;28;20022;-48
2021/04/07 05:02:33;;;;;;;2.28;1.15;;;1.30;99.90;;;;;;5005558;28;20037;-48
2021/04/07 05:05:37;;;;;;;1.00;0.90;;;1.40;99.90;;;;;;5009590;28;20038;-47
2021/04/07 05:08:45;;;;;;;3.80;1.20;;;1.50;99.90;;;;;;5010683;28;20026;-48
2021/04/07 05:11:49;;;;;;;5.18;1.60;;;1.50;99.90;;;;;;5008013;28;20046;-48
2021/04/07 05:14:53;;;;;;;1.63;0.63;;;1.60;99.90;;;;;;4999569;28;20029;-49
2021/04/07 05:17:58;;;;;;;3.03;1.08;;;1.70;99.90;;;;;;4998625;28;20046;-48
2021/04/07 05:21:01;;;;;;;1.70;1.10;;;1.80;99.90;;;;;;4998980;28;20631;-48
2021/04/07 05:24:07;;;;;;;2.50;1.15;;;2.10;99.90;;;;;;4997119;28;20038;-48
2021/04/07 05:27:11;;;;;;;3.97;1.23;;;2.50;99.90;;;;;;4991344;28;20038;-47
2021/04/07 05:30:16;;;;;;;5.32;1.50;;;3.40;99.90;;;;;;4992919;28;20031;-46
2021/04/07 05:33:21;;;;;;;3.30;1.38;;;3.70;98.10;;;;;;4994853;28;20050;-50
2021/04/07 05:36:26;;;;;;;4.35;1.42;;;4.10;97.30;;;;;;5000711;28;20033;-47
2021/04/07 05:39:32;;;;;;;2.83;1.10;;;4.40;97.30;;;;;;5008271;28;20034;-49
2021/04/07 05:42:36;;;;;;;2.10;1.20;;;4.10;99.60;;;;;;5002918;28;20038;-47
2021/04/07 05:45:40;;;;;;;2.83;1.08;;;3.50;99.90;;;;;;5001264;28;20054;-49
2021/04/07 05:48:45;;;;;;;4.53;1.10;;;3.50;99.90;;;;;;4992646;28;20035;-46
2021/04/07 05:51:49;;;;;;;2.83;0.90;;;3.80;99.90;;;;;;5004863;28;20038;-47
2021/04/07 05:54:54;;;;;;;2.70;0.90;;;4.70;99.90;;;;;;5001894;28;20684;-52
2021/04/07 05:58:10;;;;;;;4.70;1.02;;;6.70;96.90;;;;;;4993598;28;20501;-47
2021/04/07 06:01:14;;;;;;;3.63;1.20;;;8.90;92.50;;;;;;5001547;28;20495;-47
2021/04/07 06:04:18;;;;;;;4.07;1.60;;;9.40;90.30;;;;;;4998407;28;20038;-46
2021/04/07 06:07:23;;;;;;;3.85;1.60;;;9.40;88.30;;;;;;4999402;28;20045;-45
2021/04/07 06:10:28;;;;;;;4.18;1.23;;;8.80;86.70;;;;;;4995169;28;20030;-49
2021/04/07 06:13:32;;;;;;;3.25;1.50;;;8.00;88.70;;;;;;4995606;28;20041;-46
2021/04/07 06:16:39;;;;;;;3.65;1.30;;;7.80;89.40;;;;;;4999132;28;20050;-45
2021/04/07 06:19:43;;;;;;;6.47;1.40;;;8.60;88.70;;;;;;4996941;28;20042;-47
2021/04/07 06:22:48;;;;;;;2.30;1.20;;;9.70;85.50;;;;;;4998770;28;20042;-46
2021/04/07 06:26:07;;;;;;;1.75;1.17;;;10.60;87.50;;;;;;4995947;28;20037;-50
2021/04/07 06:29:11;;;;;;;3.47;1.45;;;10.90;85.80;;;;;;5001133;28;20041;-51
2021/04/07 06:32:15;;;;;;;3.05;1.30;;;11.40;84.30;;;;;;4998090;28;20041;-52
2021/04/07 06:35:20;;;;;;;4.82;1.38;;;11.30;80.20;;;;;;5005345;28;20053;-50
2021/04/07 06:38:25;;;;;;;2.97;0.98;;;11.40;78.90;;;;;;4995885;28;20045;-46
2021/04/07 06:41:29;;;;;;;2.40;1.77;;;11.70;77.70;;;;;;5007182;28;20052;-51
2021/04/07 06:44:34;;;;;;;3.42;1.65;;;12.10;76.70;;;;;;5004055;28;20245;-46
2021/04/07 06:47:39;;;;;;;3.90;1.85;;;12.60;75.80;;;;;;5008962;28;21058;-53
2021/04/07 06:50:45;;;;;;;2.25;1.30;;;12.70;75.80;;;;;;4998717;28;20044;-49
2021/04/07 06:53:51;;;;;;;5.10;1.80;;;12.70;73.60;;;;;;4994588;28;20148;-45
2021/04/07 06:56:55;;;;;;;6.05;1.88;;;12.80;75.60;;;;;;4999971;28;20053;-52
2021/04/07 07:00:00;;;;;;;4.90;1.67;;;13.10;76.40;;;;;;5003074;28;20436;-48
2021/04/07 07:03:05;;;;;;;3.33;1.65;;;13.10;73.90;;;;;;5008081;28;20208;-47
2021/04/07 07:06:10;;;;;;;2.65;1.38;;;13.60;74.20;;;;;;5007746;28;20088;-49
2021/04/07 07:09:19;;;;;;;4.43;1.63;;;14.10;74.20;;;;;;5000980;28;20049;-46
2021/04/07 07:12:26;;;;;;;3.53;1.90;;;14.60;73.00;;;;;;5002078;28;20040;-46
2021/04/07 07:15:30;;;;;;;5.80;2.70;;;14.70;72.10;;;;;;5006823;28;20531;-48
2021/04/07 07:18:35;;;;;;;9.30;4.63;;;14.70;71.90;;;;;;4998901;28;20508;-47
2021/04/07 07:21:55;;;;;;;5.18;2.88;;;14.30;73.20;;;;;;5002662;28;20041;-51
2021/04/07 07:25:01;;;;;;;6.22;3.33;;;14.40;72.10;;;;;;5007268;28;20067;-46
2021/04/07 07:28:27;;;;;;;6.43;3.28;;;14.50;72.40;;;;;;5006630;28;20041;-50
2021/04/07 07:31:32;;;;;;;3.65;1.92;;;15.10;72.40;;;;;;5006270;28;20041;-51
2021/04/07 07:34:37;;;;;;;6.68;2.08;;;16.10;70.00;;;;;;5008190;28;20065;-52
2021/04/07 07:37:43;;;;;;;2.92;1.40;;;17.20;67.90;;;;;;5006667;28;20184;-45
2021/04/07 07:40:47;;;;;;;2.95;1.40;;;17.70;66.00;;;;;;5004057;28;20041;-51
2021/04/07 07:43:53;;;;;;;4.30;1.40;;;18.60;63.90;;;;;;5008240;28;20065;-48
2021/04/07 07:47:04;;;;;;;3.78;1.70;;;18.80;61.90;;;;;;5000264;28;20686;-46
2021/04/07 07:50:09;;;;;;;2.90;1.17;;;18.50;60.70;;;;;;5008205;28;20045;-49
2021/04/07 07:53:23;;;;;;;4.63;1.40;;;18.00;61.00;;;;;;4998922;28;20769;-46
2021/04/07 07:56:37;;;;;;;3.53;1.30;;;18.10;60.80;;;;;;5006964;28;20041;-48
2021/04/07 07:59:41;;;;;;;3.30;1.35;;;17.40;61.40;;;;;;4998498;28;20045;-51
2021/04/07 08:02:46;;;;;;;6.90;2.42;;;17.60;60.90;;;;;;4996016;28;20377;-47
2021/04/07 08:05:51;;;;;;;4.95;2.42;;;18.00;60.40;;;;;;4999163;28;20433;-46
2021/04/07 08:08:57;;;;;;;3.15;1.13;;;18.30;60.80;;;;;;4998448;28;20037;-47
2021/04/07 08:12:01;;;;;;;2.53;1.83;;;19.10;59.00;;;;;;4998178;28;20044;-47
2021/04/07 08:15:09;;;;;;;1.83;0.70;;;19.10;57.80;;;;;;4994582;28;20041;-46
2021/04/07 08:18:29;;;;;;;4.32;1.13;;;18.80;52.70;;;;;;5007281;28;20036;-47
2021/04/07 08:21:35;;;;;;;3.28;1.13;;;17.90;57.30;;;;;;5009795;28;20053;-46
2021/04/07 08:24:40;;;;;;;3.58;1.27;;;17.80;56.70;;;;;;4999098;28;20073;-52
2021/04/07 08:27:44;;;;;;;4.07;1.30;;;18.00;57.40;;;;;;5007886;28;20069;-51
2021/04/07 08:30:50;;;;;;;2.85;1.67;;;18.40;55.80;;;;;;5001643;28;20064;-51
2021/04/07 08:33:57;;;;;;;15.93;8.00;;;18.90;55.00;;;;;;5009498;28;20041;-51
2021/04/07 08:37:02;;;;;;;8.27;4.43;;;19.00;57.00;;;;;;5006332;28;20048;-46
2021/04/07 08:40:14;;;;;;;5.45;2.67;;;18.90;55.20;;;;;;5010818;28;20040;-48
2021/04/07 08:43:18;;;;;;;;;;;19.20;56.00;;;;;;5008744;28;20518;-46
2021/04/07 08:46:28;;;;;;;3.33;1.77;;;19.70;56.50;;;;;;4999827;28;19918;-49
2021/04/07 08:49:33;;;;;;;2.75;1.58;;;19.90;54.60;;;;;;4999940;28;20049;-49
2021/04/07 08:52:43;;;;;;;5.25;1.55;;;21.30;51.10;;;;;;4999963;28;20065;-46
2021/04/07 08:55:53;;;;;;;3.13;1.30;;;20.20;48.50;;;;;;4995958;28;20504;-46
2021/04/07 08:58:59;;;;;;;1.98;1.10;;;20.90;53.00;;;;;;4994387;28;20517;-49
2021/04/07 09:02:07;;;;;;;3.55;1.30;;;21.60;52.60;;;;;;4996092;28;20038;-47
2021/04/07 09:05:11;;;;;;;3.55;1.58;;;21.90;51.20;;;;;;4996817;28;20045;-46
2021/04/07 09:08:24;;;;;;;2.45;1.30;;;21.80;50.00;;;;;;4995137;28;20037;-47
2021/04/07 09:11:49;;;;;;;3.10;1.40;;;23.10;47.40;;;;;;4997481;28;20057;-49
2021/04/07 09:14:54;;;;;;;3.72;1.35;;;22.80;47.70;;;;;;5003711;28;20452;-48
2021/04/07 09:17:59;;;;;;;4.18;1.23;;;21.30;47.60;;;;;;5002853;28;20065;-47
2021/04/07 09:21:09;;;;;;;3.13;1.15;;;21.00;49.80;;;;;;5001937;28;20048;-46
2021/04/07 09:24:19;;;;;;;3.50;1.13;;;22.00;48.80;;;;;;5000833;28;20069;-53
2021/04/07 09:27:28;;;;;;;3.50;1.35;;;22.40;48.10;;;;;;4996058;28;20041;-48
2021/04/07 09:30:47;;;;;;;4.30;1.17;;;22.10;48.30;;;;;;4999423;28;20037;-48
2021/04/07 09:33:55;;;;;;;1.85;1.00;;;21.40;47.70;;;;;;4999322;28;20057;-48
2021/04/07 09:37:00;;;;;;;4.32;2.38;;;22.30;45.50;;;;;;4992123;28;20045;-50
2021/04/07 09:40:15;;;;;;;3.53;0.80;;;20.60;41.70;;;;;;4996560;28;20049;-50
2021/04/07 09:43:22;;;;;;;2.20;0.90;;;19.30;44.40;;;;;;4998297;28;20072;-47
2021/04/07 09:46:39;;;;;;;2.00;0.98;;;17.90;41.70;;;;;;4993998;28;20044;-47
2021/04/07 09:49:43;;;;;;;3.08;0.70;;;18.40;42.20;;;;;;4994750;28;20049;-46
2021/04/07 09:52:47;;;;;;;1.95;0.80;;;17.50;42.60;;;;;;4995105;28;20049;-47
2021/04/07 09:56:00;;;;;;;1.67;0.80;;;17.00;42.70;;;;;;4999385;28;20053;-48
2021/04/07 09:59:03;;;;;;;;;;;16.10;42.40;;;;;;4997596;28;20041;-47
2021/04/07 10:02:10;;;;;;;0.85;0.60;;;16.10;45.70;;;;;;4994774;28;19936;-48
2021/04/07 10:05:34;;;;;;;1.98;0.82;;;15.70;42.30;;;;;;4991803;28;20049;-47
2021/04/07 10:08:38;;;;;;;3.30;1.42;;;15.00;41.40;;;;;;4995366;28;20029;-46
2021/04/07 10:11:42;;;;;;;1.98;1.20;;;14.20;45.50;;;;;;4993853;28;20444;-51
2021/04/07 10:14:51;;;;;;;1.58;0.70;;;13.90;44.80;;;;;;4994299;28;20050;-49
2021/04/07 10:17:55;;;;;;;3.00;1.10;;;13.40;45.20;;;;;;4991832;28;20037;-47
2021/04/07 10:21:14;;;;;;;1.33;0.77;;;13.10;45.90;;;;;;4993192;28;20045;-48
2021/04/07 10:24:20;;;;;;;1.83;1.38;;;13.80;45.80;;;;;;4994104;28;20049;-47
2021/04/07 10:27:25;;;;;;;2.50;0.80;;;14.20;45.00;;;;;;4998090;28;20065;-47
2021/04/07 10:30:40;;;;;;;2.17;1.00;;;14.80;44.00;;;;;;4993309;28;20050;-47
2021/04/07 10:33:44;;;;;;;4.03;1.00;;;14.40;46.80;;;;;;4993716;28;20037;-47
2021/04/07 10:36:54;;;;;;;3.20;0.80;;;13.80;49.40;;;;;;4996334;28;20409;-50
2021/04/07 10:39:58;;;;;;;3.00;1.60;;;13.50;48.00;;;;;;4992458;28;20519;-52
2021/04/07 10:43:18;;;;;;;2.45;0.90;;;12.70;46.20;;;;;;4996210;28;20046;-48
2021/04/07 10:46:32;;;;;;;2.17;1.10;;;12.90;47.90;;;;;;5005086;28;20045;-48
2021/04/07 10:49:51;;;;;;;2.45;1.13;;;12.80;45.60;;;;;;4991651;28;20041;-48
2021/04/07 10:52:56;;;;;;;1.67;0.90;;;12.70;45.60;;;;;;4990744;28;20038;-48
2021/04/07 10:56:00;;;;;;;2.63;1.00;;;11.90;48.40;;;;;;4989983;28;20061;-49
2021/04/07 10:59:12;;;;;;;3.30;0.70;;;11.80;49.40;;;;;;4998144;28;20053;-47
2021/04/07 11:02:16;;;;;;;2.38;0.88;;;12.30;45.60;;;;;;4996795;28;20535;-49
2021/04/07 11:05:22;;;;;;;3.65;0.70;;;13.80;45.20;;;;;;4992242;28;20045;-49
2021/04/07 11:08:03;;;;;;;1.55;0.90;;;15.30;42.60;;;;;;5092274;27;20903;-50
2021/04/07 11:11:07;;;;;;;2.53;0.90;;;15.90;43.80;;;;;;5080133;28;20029;-48
2021/04/07 11:14:11;;;;;;;1.40;1.02;;;17.90;41.30;;;;;;5076158;28;20041;-47
2021/04/07 11:17:18;;;;;;;2.72;0.68;;;19.90;40.60;;;;;;5076031;28;20388;-45
2021/04/07 11:20:24;;;;;;;1.75;0.60;;;19.60;38.70;;;;;;5091891;28;20044;-46
2021/04/07 11:23:28;;;;;;;3.40;0.70;;;21.00;39.20;;;;;;5077471;28;20040;-47
2021/04/07 11:26:33;;;;;;;2.33;0.70;;;22.00;37.80;;;;;;5075199;28;20055;-52
2021/04/07 11:29:37;;;;;;;2.53;0.80;;;20.30;34.80;;;;;;5074131;28;20055;-47
2021/04/07 11:32:49;;;;;;;1.73;0.60;;;18.00;40.20;;;;;;5078000;28;20972;-47
2021/04/07 11:45:41;;;;;;;1.88;0.90;;;14.40;42.20;;;;;;5075259;28;20043;-48
2021/04/07 11:48:46;;;;;;;6.10;0.60;;;14.40;43.00;;;;;;5082941;28;20036;-47
2021/04/07 11:51:52;;;;;;;3.45;0.90;;;14.50;42.10;;;;;;5086716;28;21332;-50
2021/04/07 11:54:57;;;;;;;2.97;0.80;;;14.40;42.90;;;;;;5088004;28;20036;-47
2021/04/07 11:58:01;;;;;;;11.02;6.20;;;14.20;42.90;;;;;;5079657;28;20048;-47
2021/04/07 12:01:06;;;;;;;2.92;1.10;;;13.70;45.80;;;;;;5079929;28;20046;-46
2021/04/07 12:04:10;;;;;;;5.07;1.70;;;12.80;47.80;;;;;;5084562;28;20106;-50
2021/04/07 12:07:15;;;;;;;4.22;1.13;;;12.10;50.40;;;;;;5076065;28;20032;-46
2021/04/07 12:10:22;;;;;;;3.63;1.35;;;11.40;51.90;;;;;;5075501;28;20058;-46
2021/04/07 12:13:27;;;;;;;2.10;1.10;;;10.80;52.90;;;;;;5083944;28;20585;-46
2021/04/07 12:16:31;;;;;;;4.60;0.98;;;11.10;53.50;;;;;;5087617;28;20371;-50
2021/04/07 12:19:36;;;;;;;2.28;1.00;;;11.10;52.30;;;;;;5066462;28;20048;-47
2021/04/07 12:22:40;;;;;;;3.45;1.33;;;11.60;52.90;;;;;;5071705;28;20151;-46
2021/04/07 12:25:46;;;;;;;7.55;1.20;;;12.60;52.20;;;;;;5058233;28;20036;-48
2021/04/07 12:28:50;;;;;;;3.60;0.98;;;13.80;50.00;;;;;;5065065;28;20036;-47
2021/04/07 12:31:54;;;;;;;3.03;0.70;;;15.40;49.40;;;;;;5064782;28;20033;-53
2021/04/07 12:34:58;;;;;;;5.88;1.15;;;16.70;47.90;;;;;;5066668;28;20099;-51
2021/04/07 12:38:03;;;;;;;5.13;1.00;;;15.80;45.70;;;;;;5064406;28;20048;-47
2021/04/07 12:41:12;;;;;;;0.60;0.50;;;15.10;46.90;;;;;;5064935;28;20511;-48
2021/04/07 12:44:16;;;;;;;2.65;0.82;;;14.70;47.10;;;;;;5063228;28;20376;-46
2021/04/07 12:47:20;;;;;;;6.55;1.00;;;14.40;47.20;;;;;;5063128;28;20029;-47
2021/04/07 12:50:24;;;;;;;1.60;0.75;;;14.30;46.90;;;;;;5060233;28;20029;-49
2021/04/07 12:53:48;;;;;;;1.98;0.77;;;14.50;47.00;;;;;;5067844;28;20487;-48
2021/04/07 12:56:52;;;;;;;1.25;0.57;;;15.20;45.40;;;;;;5064359;28;20032;-48
2021/04/07 12:59:56;;;;;;;1.23;1.00;;;17.10;43.20;;;;;;5067305;28;20036;-48
2021/04/07 13:03:00;;;;;;;2.53;0.90;;;18.10;40.40;;;;;;5065654;28;20044;-50
2021/04/07 13:06:05;;;;;;;3.28;0.95;;;19.60;41.00;;;;;;5065817;28;20491;-50
2021/04/07 13:09:09;;;;;;;3.10;0.80;;;20.80;39.70;;;;;;5061157;28;20045;-48
2021/04/07 13:12:13;;;;;;;3.30;1.23;;;20.70;39.90;;;;;;5074576;28;20029;-56
2021/04/07 13:15:18;;;;;;;2.03;0.98;;;21.00;40.10;;;;;;5074506;28;20037;-56
2021/04/07 13:18:23;;;;;;;4.30;1.05;;;21.40;38.10;;;;;;5072795;28;20067;-51
2021/04/07 13:21:31;;;;;;;2.50;0.85;;;21.70;40.20;;;;;;5061056;28;20036;-48
2021/04/07 13:24:36;;;;;;;1.67;1.10;;;20.90;41.50;;;;;;5063538;28;20028;-47
2021/04/07 13:27:40;;;;;;;2.80;0.80;;;20.50;42.50;;;;;;5066993;28;20041;-49
2021/04/07 13:30:47;;;;;;;2.15;0.93;;;21.90;42.00;;;;;;5057929;28;20052;-48
2021/04/07 13:33:54;;;;;;;1.55;0.95;;;21.90;40.40;;;;;;5063933;28;20032;-52
2021/04/07 13:37:04;;;;;;;1.90;1.13;;;22.10;39.30;;;;;;5064458;28;20045;-52
2021/04/07 13:43:13;;;;;;;3.15;0.90;;;23.00;37.30;;;;;;5063343;28;20494;-53
2021/04/07 13:46:17;;;;;;;2.53;1.30;;;23.90;37.10;;;;;;5065135;28;20036;-51
2021/04/07 13:49:22;;;;;;;3.53;1.42;;;23.80;35.90;;;;;;5065979;28;20396;-52
2021/04/07 13:52:26;;;;;;;5.93;3.05;;;22.50;35.90;;;;;;5065401;28;20032;-51
2021/04/07 13:55:35;;;;;;;3.88;2.05;;;21.60;36.40;;;;;;5063726;28;20403;-50
2021/04/07 13:58:40;;;;;;;3.92;2.05;;;20.50;36.40;;;;;;5057952;28;20059;-51
2021/04/07 14:01:44;;;;;;;4.10;1.50;;;20.80;37.40;;;;;;5061292;28;20047;-48
2021/04/07 14:04:48;;;;;;;2.28;1.33;;;20.50;37.80;;;;;;5066712;28;20047;-49
2021/04/07 14:07:55;;;;;;;4.68;1.90;;;20.00;37.90;;;;;;5058839;28;20037;-51
2021/04/07 14:10:59;;;;;;;3.03;1.40;;;18.90;38.70;;;;;;5054821;28;20043;-47
2021/04/07 14:14:03;;;;;;;3.75;1.63;;;18.00;41.50;;;;;;5066797;28;20041;-49
2021/04/07 14:17:08;;;;;;;3.00;1.45;;;17.70;42.10;;;;;;5060363;28;20400;-49
2021/04/07 14:20:13;;;;;;;2.15;1.33;;;17.30;41.40;;;;;;5061356;28;20053;-46
2021/04/07 14:23:17;;;;;;;3.63;1.50;;;17.50;41.20;;;;;;5051595;28;20045;-50
2021/04/07 14:26:22;;;;;;;1.48;1.25;;;18.00;41.60;;;;;;5058377;28;20032;-47
2021/04/07 14:29:26;;;;;;;3.05;1.70;;;17.80;42.10;;;;;;5062650;28;20033;-49
2021/04/07 14:32:31;;;;;;;3.67;1.58;;;17.00;41.50;;;;;;5064951;28;20055;-49
2021/04/07 14:35:35;;;;;;;3.78;1.90;;;16.90;41.80;;;;;;5065592;28;20402;-48
2021/04/07 14:38:40;;;;;;;6.47;1.90;;;16.50;42.10;;;;;;5065595;28;20044;-52
2021/04/07 14:41:45;;;;;;;4.32;1.80;;;16.20;42.40;;;;;;5060726;28;20028;-50
2021/04/07 14:44:50;;;;;;;4.90;1.70;;;15.70;42.40;;;;;;5053824;28;20037;-50
2021/04/07 14:47:55;;;;;;;3.72;1.65;;;14.90;43.00;;;;;;5064061;28;20041;-50
2021/04/07 14:51:01;;;;;;;9.18;2.40;;;14.30;44.20;;;;;;5061347;28;20427;-50
2021/04/07 14:54:12;;;;;;;2.05;1.50;;;14.20;42.70;;;;;;5065476;28;20056;-50
2021/04/07 14:57:16;;;;;;;3.15;1.70;;;14.20;42.30;;;;;;5064338;28;20063;-48
2021/04/07 15:00:21;;;;;;;5.63;1.70;;;14.10;42.30;;;;;;5062869;28;20040;-46
2021/04/07 15:03:25;;;;;;;2.90;1.70;;;13.50;43.40;;;;;;5068529;28;20040;-49
2021/04/07 15:06:30;;;;;;;3.78;2.03;;;12.80;43.00;;;;;;5056123;28;20047;-51
2021/04/07 15:09:36;;;;;;;1.92;1.48;;;12.70;45.30;;;;;;5064581;28;20028;-51
2021/04/07 15:12:40;;;;;;;5.05;1.58;;;12.70;45.20;;;;;;5059730;28;20032;-47
2021/04/07 15:15:44;;;;;;;5.40;1.67;;;12.90;44.00;;;;;;5068913;28;20043;-48
2021/04/07 15:18:48;;;;;;;3.75;1.65;;;13.00;43.70;;;;;;5067984;28;20047;-48
2021/04/07 15:21:53;;;;;;;5.40;3.08;;;13.10;44.60;;;;;;5071206;28;20042;-54
2021/04/07 15:24:57;;;;;;;7.55;2.80;;;11.30;52.00;;;;;;5058575;28;20045;-52
2021/04/07 15:31:14;;;;;;;11.95;3.03;;;9.70;58.80;;;;;;5067114;28;20036;-47
2021/04/07 15:34:18;;;;;;;5.72;2.85;;;9.00;61.20;;;;;;5065348;28;20043;-46
2021/04/07 15:37:22;;;;;;;6.32;4.60;;;8.60;61.10;;;;;;5053924;28;21140;-53
2021/04/07 15:40:26;;;;;;;5.88;4.18;;;8.50;63.00;;;;;;5053801;28;20029;-49
2021/04/07 15:43:31;;;;;;;12.90;7.43;;;8.70;62.20;;;;;;5053242;28;20036;-50
2021/04/07 15:46:36;;;;;;;7.43;4.38;;;8.90;62.40;;;;;;5063493;28;20040;-50
2021/04/07 15:49:41;;;;;;;7.45;4.53;;;8.50;61.90;;;;;;5055801;28;20041;-48
2021/04/07 15:52:45;;;;;;;5.47;3.90;;;8.40;62.70;;;;;;5065745;28;20041;-51
2021/04/07 15:55:49;;;;;;;12.90;9.02;;;8.30;62.00;;;;;;5061724;28;20052;-46
2021/04/07 15:58:54;;;;;;;11.05;5.60;;;8.60;63.00;;;;;;5063306;28;20115;-51
2021/04/07 16:01:58;;;;;;;5.97;2.92;;;9.00;58.90;;;;;;5068795;28;20519;-45
2021/04/07 16:05:03;;;;;;;7.03;4.63;;;9.20;59.20;;;;;;5068374;28;20037;-48
2021/04/07 16:08:09;;;;;;;6.22;3.65;;;9.30;56.20;;;;;;5065232;28;20044;-48
2021/04/07 16:11:13;;;;;;;10.50;5.88;;;9.40;55.70;;;;;;5063823;28;20037;-50
2021/04/07 16:14:17;;;;;;;6.72;3.67;;;9.40;55.20;;;;;;5070273;28;20512;-46
2021/04/07 16:17:21;;;;;;;7.80;4.53;;;9.50;53.90;;;;;;5072934;28;20036;-48
2021/04/07 16:20:28;;;;;;;5.03;3.70;;;9.40;52.90;;;;;;5061142;28;20040;-47
2021/04/07 16:23:32;;;;;;;7.50;4.97;;;9.40;54.10;;;;;;5062376;28;20036;-51
2021/04/07 16:26:36;;;;;;;8.55;4.85;;;9.50;53.70;;;;;;5068807;28;20036;-49
2021/04/07 16:29:41;;;;;;;9.77;5.25;;;9.40;51.00;;;;;;5054732;28;20507;-50